Météo Nord-Pas-de-Calais   La météo au plus près de chez vous

Station météorologique

Observations météo à Bernay (27056)

27056003 166 m Dernier relevé à 12:54
19.5°C
Humidité 66 % Vent 13.7 km/h

Journée consultée

Samedi 5 Septembre 2026

Synthèse de la journée

Périodes de référence en UTC

Température maximale

19.6°C

à 12:42

06h 06h

Température minimale

12.1°C

à 07:30

18h 18h

Rafale maximale

26 km/h

à 12:54

00h 00h

Précipitations

0 mm

Cumul quotidien

06h 06h

Ensoleillement

4h 20 mins

Durée quotidienne

00h 00h

Graphiques de la journée

Heure locale Réduire

Données détaillées

Relevés météo

Pas de 6 minutes Afficher les relevés infra-horaires
Relevés météo détaillés à Bernay pour le Samedi 5 Septembre 2026
Heure Température °C Point de rosée °C Humidité % Vent moyen (raf.), km/h Précipitations mm Ensoleillement min Rayonnement global W/m²
12:54 19.5 °C 11.8 °C 61 % 17 km/h (26 km/h) 0 mm0 mm 6 min 312.6 W/m²
12:48 19.6 °C 12.4 °C 63 % 12 km/h (21 km/h) 0 mm0 mm 6 min 321.4 W/m²
12:42 19.6 °C 11.4 °C 59 % 10 km/h (18 km/h) 0 mm0 mm 6 min 297.9 W/m²
12:36 19.1 °C 12.4 °C 65 % 11 km/h (18 km/h) 0 mm0 mm 5 min 262.4 W/m²
12:30 18.7 °C 12 °C 65 % 11 km/h (22 km/h) 0 mm0 mm 3 min 184.6 W/m²
12:24 19.2 °C 11.7 °C 62 % 10 km/h (22 km/h) 0 mm0 mm 5 min 261.3 W/m²
12:18 19 °C 11.8 °C 63 % 9 km/h (15 km/h) 0 mm0 mm 6 min 298.8 W/m²
12:12 18.9 °C 12.4 °C 66 % 10 km/h (15 km/h) 0 mm0 mm 6 min 270.4 W/m²
12:06 18.8 °C 12.1 °C 65 % 9 km/h (17 km/h) 0 mm0 mm 6 min 258.3 W/m²
12:00 18.9 °C 12.4 °C 66 % 10 km/h (17 km/h) 0 mm0 mm 6 min 254.1 W/m²
11:54 18.3 °C 11.8 °C 66 % 14 km/h (22 km/h) 0 mm0 mm 2 min 152.4 W/m²
11:48 18.7 °C 11.7 °C 64 % 14 km/h (22 km/h) 0 mm0 mm 5 min 232 W/m²
11:42 18.3 °C 12.1 °C 67 % 9 km/h (19 km/h) 0 mm0 mm 6 min 251.8 W/m²
11:36 17.9 °C 11.5 °C 66 % 9 km/h (17 km/h) 0 mm0 mm 4 min 179.7 W/m²
11:30 17.5 °C 12 °C 70 % 13 km/h (21 km/h) 0 mm0 mm 2 min 117.9 W/m²
11:24 17.8 °C 11.8 °C 68 % 12 km/h (21 km/h) 0 mm0 mm 4 min 183.3 W/m²
11:18 17.2 °C 12.1 °C 72 % 15 km/h (22 km/h) 0 mm0 mm 2 min 116.4 W/m²
11:12 17.4 °C 11.9 °C 70 % 15 km/h (23 km/h) 0 mm0 mm 1 min 108.7 W/m²
11:06 17.7 °C 12.6 °C 72 % 14 km/h (23 km/h) 0 mm0 mm 6 min 222.3 W/m²
11:00 17.7 °C 13.2 °C 75 % 14 km/h (23 km/h) 0 mm0 mm 6 min 198.2 W/m²
10:54 17.6 °C 13.1 °C 75 % 15 km/h (22 km/h) 0 mm0 mm 6 min 188.9 W/m²
10:48 17.4 °C 13.1 °C 76 % 16 km/h (25 km/h) 0 mm0 mm 6 min 178.5 W/m²
10:42 17.4 °C 13.3 °C 77 % 14 km/h (25 km/h) 0 mm0 mm 6 min 170.1 W/m²
10:36 17.2 °C 12.7 °C 75 % 14 km/h (22 km/h) 0 mm0 mm 6 min 164.5 W/m²
10:30 17.2 °C 13.5 °C 79 % 12 km/h (20 km/h) 0 mm0 mm 6 min 164.4 W/m²
10:24 17 °C 13.1 °C 78 % 11 km/h (16 km/h) 0 mm0 mm 6 min 156.7 W/m²
10:18 16.9 °C 13.4 °C 80 % 11 km/h (19 km/h) 0 mm0 mm 6 min 148.7 W/m²
10:12 16.7 °C 13 °C 79 % 11 km/h (17 km/h) 0 mm0 mm 6 min 142.4 W/m²
10:06 16.6 °C 13.3 °C 81 % 10 km/h (17 km/h) 0 mm0 mm 6 min 135.3 W/m²
10:00 16.4 °C 13.3 °C 82 % 12 km/h (21 km/h) 0 mm0 mm 6 min 124.9 W/m²
09:54 16.1 °C 13 °C 82 % 12 km/h (21 km/h) 0 mm0 mm 6 min 122.2 W/m²
09:48 16.1 °C 13.4 °C 84 % 11 km/h (20 km/h) 0 mm0 mm 6 min 118.3 W/m²
09:42 16 °C 13.8 °C 87 % 10 km/h (18 km/h) 0 mm0 mm 6 min 105.6 W/m²
09:36 15.7 °C 13.9 °C 89 % 9 km/h (18 km/h) 0 mm0 mm 6 min 102.8 W/m²
09:30 15.3 °C 14.2 °C 93 % 8 km/h (14 km/h) 0 mm0 mm 6 min 97.5 W/m²
09:24 15 °C 14 °C 94 % 7 km/h (13 km/h) 0 mm0 mm 5 min 85.7 W/m²
09:18 14.7 °C 13.4 °C 92 % 9 km/h (14 km/h) 0 mm0 mm 0 min 36.4 W/m²
09:12 14.9 °C 13.3 °C 90 % 10 km/h (17 km/h) 0 mm0 mm 1 min 49.7 W/m²
09:06 15.1 °C 14 °C 93 % 9 km/h (17 km/h) 0 mm0 mm 6 min 90.7 W/m²
09:00 14.7 °C 13.7 °C 94 % 8 km/h (13 km/h) 0 mm0 mm 6 min 88.2 W/m²
08:54 14.3 °C 13.3 °C 94 % 7 km/h (12 km/h) 0 mm0 mm 6 min 72 W/m²
08:48 14.1 °C 13.1 °C 94 % 8 km/h (12 km/h) 0 mm0 mm 6 min 61.9 W/m²
08:42 14 °C 13 °C 94 % 8 km/h (13 km/h) 0 mm0 mm 6 min 57.2 W/m²
08:36 13.8 °C 13.2 °C 96 % 8 km/h (13 km/h) 0 mm0 mm 6 min 48.8 W/m²
08:30 13.5 °C 13 °C 97 % 9 km/h (13 km/h) 0 mm0 mm 6 min 44.1 W/m²
08:24 13.2 °C 12.7 °C 97 % 10 km/h (15 km/h) 0 mm0 mm 6 min 36.4 W/m²
08:18 13 °C 12.7 °C 98 % 9 km/h (14 km/h) 0 mm0 mm 6 min 31.5 W/m²
08:12 12.8 °C 12.6 °C 99 % 8 km/h (13 km/h) 0 mm0 mm 6 min 29.5 W/m²
08:06 12.5 °C 12.3 °C 99 % 6 km/h (11 km/h) 0 mm0 mm 6 min 21.2 W/m²
08:00 12.3 °C 12.1 °C 99 % 6 km/h (9 km/h) 0 mm0 mm 5 min 14.3 W/m²
07:54 12.2 °C 12 °C 99 % 7 km/h (10 km/h) 0 mm0 mm 0 min 9.7 W/m²
07:48 12.2 °C 12.2 °C 100 % 6 km/h (9 km/h) 0 mm0 mm 0 min 4.5 W/m²
07:42 12.2 °C 12.2 °C 100 % 6 km/h (10 km/h) 0 mm0 mm 0 min 0 W/m²
07:36 12.1 °C 12.1 °C 100 % 6 km/h (10 km/h) 0 mm0 mm 0 min 0 W/m²
07:30 12.1 °C 11.9 °C 99 % 6 km/h (11 km/h) 0 mm0 mm 0 min 0 W/m²
07:24 12.2 °C 12 °C 99 % 6 km/h (9 km/h) 0 mm0 mm 0 min 0 W/m²
07:18 12.2 °C 12 °C 99 % 6 km/h (9 km/h) 0 mm0 mm 0 min 0 W/m²
07:12 12.3 °C 12.1 °C 99 % 7 km/h (10 km/h) 0 mm0 mm 0 min 0 W/m²
07:06 12.4 °C 12.2 °C 99 % 8 km/h (10 km/h) 0 mm0 mm 0 min 0 W/m²
07:00 12.4 °C 12.2 °C 99 % 7 km/h (10 km/h) 0 mm0 mm 0 min 0 W/m²
06:54 12.4 °C 12.1 °C 98 % 7 km/h (10 km/h) 0 mm0 mm 0 min 0 W/m²
06:48 12.5 °C 12.2 °C 98 % 6 km/h (10 km/h) 0 mm0 mm 0 min 0 W/m²
06:42 12.5 °C 12.2 °C 98 % 7 km/h (10 km/h) 0 mm0 mm 0 min 0 W/m²
06:36 12.6 °C 12.3 °C 98 % 6 km/h (10 km/h) 0 mm0 mm 0 min 0 W/m²
06:30 12.6 °C 12.3 °C 98 % 6 km/h (10 km/h) 0 mm0 mm 0 min 0 W/m²
06:24 12.7 °C 12.4 °C 98 % 8 km/h (11 km/h) 0 mm0 mm 0 min 0 W/m²
06:18 12.8 °C 12.3 °C 97 % 9 km/h (13 km/h) 0 mm0 mm 0 min 0 W/m²
06:12 12.9 °C 12.6 °C 98 % 9 km/h (12 km/h) 0 mm0 mm 0 min 0 W/m²
06:06 12.8 °C 12.3 °C 97 % 8 km/h (12 km/h) 0 mm0 mm 0 min 0 W/m²
06:00 12.9 °C 12.4 °C 97 % 8 km/h (11 km/h) 0 mm0 mm 0 min 0 W/m²
05:54 13 °C 12.5 °C 97 % 8 km/h (11 km/h) 0 mm0 mm 0 min 0 W/m²
05:48 13.1 °C 12.6 °C 97 % 7 km/h (10 km/h) 0 mm0 mm 0 min 0 W/m²
05:42 13.1 °C 12.5 °C 96 % 6 km/h (12 km/h) 0 mm0 mm 0 min 0 W/m²
05:36 13.3 °C 12.7 °C 96 % 7 km/h (11 km/h) 0 mm0 mm 0 min 0 W/m²
05:30 13.4 °C 12.8 °C 96 % 8 km/h (12 km/h) 0 mm0 mm 0 min 0 W/m²
05:24 13.5 °C 12.7 °C 95 % 9 km/h (13 km/h) 0 mm0 mm 0 min 0 W/m²
05:18 13.6 °C 12.8 °C 95 % 9 km/h (13 km/h) 0 mm0 mm 0 min 0 W/m²
05:12 13.6 °C 12.8 °C 95 % 9 km/h (14 km/h) 0 mm0 mm 0 min 0 W/m²
05:06 13.6 °C 13 °C 96 % 8 km/h (14 km/h) 0 mm0 mm 0 min 0 W/m²
05:00 13.6 °C 13 °C 96 % 8 km/h (14 km/h) 0 mm0 mm 0 min 0 W/m²
04:54 13.6 °C 12.8 °C 95 % 8 km/h (14 km/h) 0 mm0 mm 0 min 0 W/m²
04:48 13.7 °C 13.1 °C 96 % 8 km/h (13 km/h) 0 mm0 mm 0 min 0 W/m²
04:42 13.7 °C 13.1 °C 96 % 6 km/h (10 km/h) 0 mm0 mm 0 min 0 W/m²
04:36 13.7 °C 13.1 °C 96 % 6 km/h (10 km/h) 0 mm0 mm 0 min 0 W/m²
04:30 13.8 °C 13 °C 95 % 8 km/h (11 km/h) 0 mm0 mm 0 min 0 W/m²
04:24 13.9 °C 13.1 °C 95 % 7 km/h (10 km/h) 0 mm0 mm 0 min 0 W/m²
04:18 14 °C 13 °C 94 % 6 km/h (9 km/h) 0 mm0 mm 0 min 0 W/m²
04:12 14.2 °C 13.2 °C 94 % 6 km/h (9 km/h) 0 mm0 mm 0 min 0 W/m²
04:06 14.3 °C 13.3 °C 94 % 6 km/h (9 km/h) 0 mm0 mm 0 min 0 W/m²
04:00 14.3 °C 13.3 °C 94 % 6 km/h (10 km/h) 0 mm0 mm 0 min 0 W/m²
03:54 14.5 °C 13.4 °C 93 % 7 km/h (11 km/h) 0 mm0 mm 0 min 0 W/m²
03:48 14.6 °C 13.3 °C 92 % 6 km/h (10 km/h) 0 mm0 mm 0 min 0 W/m²
03:42 14.9 °C 13.4 °C 91 % 6 km/h (12 km/h) 0 mm0 mm 0 min 0 W/m²
03:36 15.1 °C 13.5 °C 90 % 8 km/h (12 km/h) 0 mm0 mm 0 min 0 W/m²
03:30 15.2 °C 13.6 °C 90 % 9 km/h (15 km/h) 0 mm0 mm 0 min 0 W/m²
03:24 15.2 °C 13.7 °C 91 % 11 km/h (17 km/h) 0 mm0 mm 0 min 0 W/m²
03:18 15.2 °C 13.7 °C 91 % 12 km/h (18 km/h) 0 mm0 mm 0 min 0 W/m²
03:12 15.2 °C 13.7 °C 91 % 12 km/h (18 km/h) 0 mm0 mm 0 min 0 W/m²
03:06 15.3 °C 13.8 °C 91 % 10 km/h (14 km/h) 0 mm0 mm 0 min 0 W/m²
03:00 15.3 °C 13.8 °C 91 % 8 km/h (13 km/h) 0 mm0 mm 0 min 0 W/m²
02:54 15.4 °C 13.9 °C 91 % 10 km/h (16 km/h) 0 mm0 mm 0 min 0 W/m²
02:48 15.4 °C 13.8 °C 90 % 12 km/h (16 km/h) 0 mm0 mm 0 min 0 W/m²
02:42 15.4 °C 13.9 °C 91 % 12 km/h (18 km/h) 0 mm0 mm 0 min 0 W/m²
02:36 15.5 °C 13.9 °C 90 % 12 km/h (19 km/h) 0 mm0 mm 0 min 0 W/m²
02:30 15.5 °C 14 °C 91 % 13 km/h (21 km/h) 0 mm0 mm 0 min 0 W/m²
02:24 15.5 °C 14 °C 91 % 13 km/h (22 km/h) 0 mm0 mm 0 min 0 W/m²
02:18 15.6 °C 14.1 °C 91 % 12 km/h (22 km/h) 0 mm0 mm 0 min 0 W/m²
02:12 15.6 °C 14.1 °C 91 % 12 km/h (23 km/h) 0 mm0 mm 0 min 0 W/m²
02:06 15.6 °C 14.1 °C 91 % 12 km/h (23 km/h) 0 mm0 mm 0 min 0 W/m²
02:00 15.7 °C 14.2 °C 91 % 11 km/h (20 km/h) 0 mm0 mm 0 min 0 W/m²
01:54 15.8 °C 14.3 °C 91 % 12 km/h (20 km/h) 0 mm0 mm 0 min 0 W/m²
01:48 15.8 °C 14.3 °C 91 % 12 km/h (20 km/h) 0 mm0 mm 0 min 0 W/m²
01:42 15.9 °C 14.4 °C 91 % 13 km/h (20 km/h) 0 mm0 mm 0 min 0 W/m²
01:36 16 °C 14.5 °C 91 % 10 km/h (20 km/h) 0 mm0 mm 0 min 0 W/m²
01:30 16 °C 15 °C 94 % 9 km/h (15 km/h) 0 mm0 mm 0 min 0 W/m²
01:24 16.1 °C 15.3 °C 95 % 8 km/h (15 km/h) 0 mm0 mm 0 min 0 W/m²
01:18 16.2 °C 15.4 °C 95 % 9 km/h (19 km/h) 0 mm0 mm 0 min 0 W/m²
01:12 16.2 °C 15.2 °C 94 % 11 km/h (19 km/h) 0 mm0 mm 0 min 0 W/m²
01:06 16.3 °C 15.2 °C 93 % 10 km/h (19 km/h) 0 mm0 mm 0 min 0 W/m²
01:00 16.3 °C 15.3 °C 94 % 10 km/h (17 km/h) 0 mm0 mm 0 min 0 W/m²
00:54 16.4 °C 15.3 °C 93 % 11 km/h (17 km/h) 0 mm0 mm 0 min 0 W/m²
00:48 16.5 °C 15.2 °C 92 % 11 km/h (17 km/h) 0 mm0 mm 0 min 0 W/m²
00:42 16.6 °C 15.1 °C 91 % 13 km/h (20 km/h) 0 mm0 mm 0 min 0 W/m²
00:36 16.7 °C 15.1 °C 90 % 14 km/h (21 km/h) 0 mm0 mm 0 min 0 W/m²
00:30 16.8 °C 15.3 °C 91 % 12 km/h (21 km/h) 0 mm0 mm 0 min 0 W/m²
00:24 16.9 °C 15.8 °C 93 % 12 km/h (19 km/h) 0 mm0 mm 0 min 0 W/m²
00:18 17 °C 15.9 °C 93 % 13 km/h (20 km/h) 0 mm0 mm 0 min 0 W/m²
00:12 17 °C 16 °C 94 % 10 km/h (19 km/h) 0 mm0 mm 0 W/m²
00:06 17.1 °C 16.1 °C 94 % 10 km/h (17 km/h) 0 mm0 mm 0 min 0 W/m²
00:00 17.1 °C 16.3 °C 95 % 10 km/h (16 km/h) 0 mm0 mm 0 min 0 W/m²

Données via Météo-France

Relevés météo à Bernay

Cette page rassemble les observations de la station de Bernay : température, humidité, vent, précipitations et pression atmosphérique. Les graphiques facilitent le suivi de la journée, tandis que le tableau donne accès aux mesures horaires et infra-horaires disponibles.

Pour replacer ces mesures dans leur contexte, consultez la climatologie de Bernay ainsi que ses normales et records. Retrouvez aussi la carte des observations météo en temps réel.